createdAt,value
2019-03-18T00:01:07.470Z,0
2019-03-18T00:02:19.568Z,0
2019-03-18T00:03:31.782Z,0
2019-03-18T00:04:43.962Z,0
2019-03-18T00:05:56.240Z,0
2019-03-18T00:08:21.090Z,0
2019-03-18T00:09:32.756Z,0
2019-03-18T00:10:44.954Z,0
2019-03-18T00:11:57.206Z,0
2019-03-18T00:13:09.391Z,0
2019-03-18T00:14:21.615Z,0
2019-03-18T00:15:33.712Z,0
2019-03-18T00:16:45.973Z,0
2019-03-18T00:17:59.166Z,0
2019-03-18T00:19:10.445Z,0
2019-03-18T00:20:22.486Z,0
2019-03-18T00:21:34.770Z,0
2019-03-18T00:22:46.878Z,0
2019-03-18T00:23:59.075Z,0
2019-03-18T00:25:11.283Z,0
2019-03-18T00:26:23.530Z,0
2019-03-18T00:27:35.690Z,0
2019-03-18T00:28:48.032Z,0
2019-03-18T00:30:00.119Z,0
2019-03-18T00:31:12.414Z,0
2019-03-18T00:32:24.441Z,0
2019-03-18T00:33:36.652Z,0
2019-03-18T00:34:48.818Z,0
2019-03-18T00:36:01.030Z,0
2019-03-18T00:37:13.207Z,0
2019-03-18T00:38:25.501Z,0
2019-03-18T00:39:37.596Z,0
2019-03-18T00:40:49.966Z,0
2019-03-18T00:42:01.996Z,0
2019-03-18T00:43:14.353Z,0
2019-03-18T00:44:26.468Z,0
2019-03-18T00:45:38.686Z,0
2019-03-18T00:46:50.767Z,0
2019-03-18T00:48:02.980Z,0
2019-03-18T00:49:15.150Z,0
2019-03-18T00:50:27.431Z,0
2019-03-18T00:51:39.625Z,0
2019-03-18T00:52:51.828Z,0
2019-03-18T00:54:03.961Z,0
2019-03-18T00:55:16.432Z,0
2019-03-18T00:56:28.310Z,0
2019-03-18T00:57:40.514Z,0
2019-03-18T00:58:52.706Z,0
2019-03-18T01:00:04.947Z,0
2019-03-18T01:01:17.183Z,0
2019-03-18T01:02:29.292Z,0
2019-03-18T01:03:41.583Z,0
2019-03-18T01:04:53.672Z,0
2019-03-18T01:06:05.875Z,0
2019-03-18T01:07:18.228Z,0
2019-03-18T01:08:30.350Z,0
2019-03-18T01:09:42.531Z,0
2019-03-18T01:10:54.736Z,0
2019-03-18T01:12:06.866Z,0
2019-03-18T01:13:19.107Z,0
2019-03-18T01:14:31.266Z,0
2019-03-18T01:15:43.500Z,0
2019-03-18T01:16:55.615Z,0
2019-03-18T01:18:07.815Z,0
2019-03-18T01:19:20.803Z,0
2019-03-18T01:20:32.272Z,0
2019-03-18T01:21:44.446Z,0
2019-03-18T01:22:56.578Z,0
2019-03-18T01:24:08.775Z,0
2019-03-18T01:25:21.032Z,0
2019-03-18T01:26:33.296Z,0
2019-03-18T01:27:45.540Z,0
2019-03-18T01:28:57.592Z,0
2019-03-18T01:30:09.816Z,0
2019-03-18T01:31:22.157Z,0
2019-03-18T01:32:34.150Z,0
2019-03-18T01:33:46.788Z,0
2019-03-18T01:34:58.590Z,0
2019-03-18T01:36:10.717Z,0
2019-03-18T01:37:22.992Z,0
2019-03-18T01:38:35.124Z,0
2019-03-18T01:39:47.373Z,0
2019-03-18T01:40:59.512Z,0
2019-03-18T01:42:16.512Z,0
2019-03-18T01:43:23.982Z,0
2019-03-18T01:44:36.156Z,0
2019-03-18T01:45:48.261Z,0
2019-03-18T01:47:00.464Z,0
2019-03-18T01:48:12.769Z,0
2019-03-18T01:49:24.851Z,0
2019-03-18T01:50:37.042Z,0
2019-03-18T01:51:49.332Z,0
2019-03-18T01:53:01.470Z,0
2019-03-18T01:54:13.632Z,0
2019-03-18T01:55:25.985Z,0
2019-03-18T01:56:38.025Z,0
2019-03-18T01:57:50.205Z,0
2019-03-18T01:59:02.419Z,0
2019-03-18T02:00:14.611Z,0
2019-03-18T02:01:26.788Z,0
2019-03-18T02:02:39.095Z,0
2019-03-18T02:03:51.177Z,0
2019-03-18T02:05:03.395Z,0
2019-03-18T02:06:15.667Z,0
2019-03-18T02:07:27.865Z,0
2019-03-18T02:08:40.047Z,0
2019-03-18T02:09:52.213Z,0
2019-03-18T02:11:04.332Z,0
2019-03-18T02:12:16.532Z,0
2019-03-18T02:13:28.724Z,0
2019-03-18T02:14:42.083Z,0
2019-03-18T02:15:53.220Z,0
2019-03-18T02:17:05.382Z,0
2019-03-18T02:18:17.584Z,0
2019-03-18T02:19:29.852Z,0
2019-03-18T02:20:41.946Z,0
2019-03-18T02:21:54.097Z,0
2019-03-18T02:23:06.281Z,0
2019-03-18T02:24:18.564Z,0
2019-03-18T02:25:30.813Z,0
2019-03-18T02:26:44.122Z,0
2019-03-18T02:27:55.051Z,0
2019-03-18T02:29:07.359Z,0
2019-03-18T02:30:19.466Z,0
2019-03-18T02:31:31.801Z,0
2019-03-18T02:32:43.955Z,0
2019-03-18T02:33:56.043Z,0
2019-03-18T02:35:08.452Z,0
2019-03-18T02:36:23.441Z,0
2019-03-18T02:37:35.144Z,0
2019-03-18T02:38:45.013Z,0
2019-03-18T02:39:57.109Z,0
2019-03-18T02:41:09.215Z,0
2019-03-18T02:42:21.454Z,0
2019-03-18T02:43:33.663Z,0
2019-03-18T02:44:45.811Z,0
2019-03-18T02:45:57.975Z,0
2019-03-18T02:47:10.185Z,0
2019-03-18T02:48:22.374Z,0
2019-03-18T02:49:34.553Z,0
2019-03-18T02:50:46.742Z,0
2019-03-18T02:51:59.013Z,0
2019-03-18T02:53:11.168Z,0
2019-03-18T02:54:23.322Z,0
2019-03-18T02:55:35.637Z,0
2019-03-18T02:56:47.773Z,0
2019-03-18T02:57:59.952Z,0
2019-03-18T02:59:12.108Z,0
2019-03-18T03:00:24.314Z,0
2019-03-18T03:01:36.507Z,0
2019-03-18T03:02:48.721Z,0
2019-03-18T03:04:00.971Z,0
2019-03-18T03:05:13.185Z,0
2019-03-18T03:06:25.269Z,0
2019-03-18T03:07:37.567Z,0
2019-03-18T03:08:49.742Z,0
2019-03-18T03:10:02.042Z,0
2019-03-18T03:11:14.140Z,0
2019-03-18T03:12:26.390Z,0
2019-03-18T03:13:38.467Z,0
2019-03-18T03:14:50.636Z,0
2019-03-18T03:16:02.851Z,0
2019-03-18T03:17:15.028Z,0
2019-03-18T03:18:27.217Z,0
2019-03-18T03:19:39.510Z,0
2019-03-18T03:20:51.671Z,0
2019-03-18T03:22:03.930Z,0
2019-03-18T03:23:16.087Z,0
2019-03-18T03:24:28.315Z,0
2019-03-18T03:25:40.399Z,0
2019-03-18T03:26:52.581Z,0
2019-03-18T03:28:04.773Z,0
2019-03-18T03:29:17.147Z,0
2019-03-18T03:30:29.172Z,0
2019-03-18T03:31:41.530Z,0
2019-03-18T03:32:53.721Z,0
2019-03-18T03:34:05.879Z,0
2019-03-18T03:35:18.025Z,0
2019-03-18T03:36:30.201Z,0
2019-03-18T03:37:42.418Z,0
2019-03-18T03:38:54.559Z,0
2019-03-18T03:40:06.890Z,0
2019-03-18T03:41:18.914Z,0
2019-03-18T03:42:31.167Z,0
2019-03-18T03:43:43.435Z,0
2019-03-18T03:44:55.515Z,0
2019-03-18T03:46:07.755Z,0
2019-03-18T03:47:19.980Z,0
2019-03-18T03:48:32.190Z,0
2019-03-18T03:49:44.392Z,0
2019-03-18T03:50:56.570Z,0
2019-03-18T03:52:08.722Z,0
2019-03-18T03:53:20.884Z,0
2019-03-18T03:54:33.075Z,0
2019-03-18T03:55:45.383Z,0
2019-03-18T03:56:57.460Z,0
2019-03-18T03:58:09.664Z,0
2019-03-18T03:59:21.860Z,0
2019-03-18T04:00:34.126Z,0
2019-03-18T04:01:46.393Z,0
2019-03-18T04:02:58.521Z,0
2019-03-18T04:04:10.656Z,0
2019-03-18T04:05:22.846Z,0
2019-03-18T04:06:35.027Z,0
2019-03-18T04:07:47.400Z,0
2019-03-18T04:08:59.594Z,0
2019-03-18T04:10:11.813Z,0
2019-03-18T04:11:23.889Z,0
2019-03-18T04:12:36.084Z,0
2019-03-18T04:13:48.368Z,0
2019-03-18T04:15:00.398Z,0
2019-03-18T04:16:12.611Z,0
2019-03-18T04:17:24.914Z,0
2019-03-18T04:18:37.097Z,0
2019-03-18T04:19:49.274Z,0
2019-03-18T04:21:01.421Z,0
2019-03-18T04:22:13.664Z,0
2019-03-18T04:23:25.996Z,0
2019-03-18T04:24:37.969Z,0
2019-03-18T04:25:50.160Z,0
2019-03-18T04:27:02.450Z,0
2019-03-18T04:28:14.548Z,0
2019-03-18T04:29:26.955Z,0
2019-03-18T04:30:38.946Z,0
2019-03-18T04:31:51.361Z,0
2019-03-18T04:33:03.337Z,0
2019-03-18T04:34:15.717Z,0
2019-03-18T04:35:27.731Z,0
2019-03-18T04:36:39.926Z,0
2019-03-18T04:37:52.286Z,0
2019-03-18T04:39:04.576Z,0
2019-03-18T04:40:16.572Z,0
2019-03-18T04:41:28.708Z,0
2019-03-18T04:42:40.923Z,0
2019-03-18T04:43:53.317Z,0
2019-03-18T04:45:05.384Z,0
2019-03-18T04:46:17.700Z,0
2019-03-18T04:47:29.689Z,0
2019-03-18T04:48:41.963Z,0
2019-03-18T04:49:54.084Z,0
2019-03-18T04:51:06.257Z,0
2019-03-18T04:52:18.452Z,0
2019-03-18T04:53:30.798Z,0
2019-03-18T04:54:42.862Z,0
2019-03-18T04:55:55.128Z,0
2019-03-18T04:57:07.243Z,0
2019-03-18T04:58:19.436Z,0
2019-03-18T04:59:31.624Z,0
2019-03-18T05:00:43.820Z,0
2019-03-18T05:01:56.032Z,0
2019-03-18T05:03:08.359Z,0
2019-03-18T05:04:20.411Z,0
2019-03-18T05:05:32.605Z,0
2019-03-18T05:06:44.928Z,0
2019-03-18T05:07:57.182Z,0
2019-03-18T05:09:09.274Z,0
2019-03-18T05:10:21.407Z,0
2019-03-18T05:11:33.668Z,0
2019-03-18T05:12:45.784Z,0
2019-03-18T05:13:58.075Z,0
2019-03-18T05:15:10.214Z,0
2019-03-18T05:16:22.384Z,0
2019-03-18T05:17:34.570Z,0
2019-03-18T05:18:46.861Z,0
2019-03-18T05:19:59.046Z,0
2019-03-18T05:21:11.300Z,0
2019-03-18T05:22:23.430Z,0
2019-03-18T05:23:35.661Z,0
2019-03-18T05:24:47.851Z,0
2019-03-18T05:25:59.925Z,0
2019-03-18T05:27:12.159Z,0
2019-03-18T05:28:24.362Z,0
2019-03-18T05:29:36.561Z,0
2019-03-18T05:30:48.823Z,0
2019-03-18T05:32:01.090Z,0
2019-03-18T05:33:13.109Z,0
2019-03-18T05:34:25.418Z,0
2019-03-18T05:35:37.575Z,0
2019-03-18T05:36:50.318Z,0
2019-03-18T05:45:21.586Z,0
2019-03-18T05:46:27.344Z,0
2019-03-18T05:47:39.455Z,0
2019-03-18T05:48:51.666Z,0
2019-03-18T05:50:03.923Z,0
2019-03-18T05:51:18.538Z,0
2019-03-18T05:52:29.889Z,5
2019-03-18T05:53:40.431Z,5
2019-03-18T05:54:52.643Z,5
2019-03-18T05:56:04.990Z,5
2019-03-18T05:57:17.059Z,0
2019-03-18T05:58:29.222Z,0
2019-03-18T05:59:41.484Z,0
2019-03-18T06:00:53.696Z,0
2019-03-18T06:02:05.809Z,0
2019-03-18T06:03:18.041Z,5
2019-03-18T06:04:30.245Z,5
2019-03-18T06:05:42.382Z,5
2019-03-18T06:06:54.660Z,5
2019-03-18T06:08:06.946Z,5
2019-03-18T06:09:18.985Z,5
2019-03-18T06:10:31.283Z,11
2019-03-18T06:11:43.460Z,11
2019-03-18T06:12:55.613Z,11
2019-03-18T06:14:07.764Z,16
2019-03-18T06:15:19.958Z,16
2019-03-18T06:16:32.171Z,16
2019-03-18T06:17:44.424Z,16
2019-03-18T06:18:56.631Z,22
2019-03-18T06:20:08.837Z,28
2019-03-18T06:21:22.004Z,33
2019-03-18T06:22:33.233Z,39
2019-03-18T06:23:45.346Z,39
2019-03-18T06:24:57.535Z,45
2019-03-18T06:26:09.904Z,50
2019-03-18T06:27:22.029Z,50
2019-03-18T06:28:34.204Z,45
2019-03-18T06:29:46.447Z,45
2019-03-18T06:30:58.506Z,45
2019-03-18T06:32:10.789Z,39
2019-03-18T06:33:22.952Z,50
2019-03-18T06:34:35.214Z,56
2019-03-18T06:35:47.327Z,61
2019-03-18T06:36:59.500Z,61
2019-03-18T06:38:11.655Z,50
2019-03-18T06:39:24.040Z,50
2019-03-18T06:40:36.127Z,67
2019-03-18T06:41:48.480Z,50
2019-03-18T06:43:00.545Z,33
2019-03-18T06:44:12.735Z,33
2019-03-18T06:45:24.838Z,28
2019-03-18T06:46:37.170Z,28
2019-03-18T06:47:49.225Z,28
2019-03-18T06:49:01.428Z,16
2019-03-18T06:50:13.621Z,16
2019-03-18T06:51:25.826Z,16
2019-03-18T06:52:38.011Z,22
2019-03-18T06:53:50.293Z,33
2019-03-18T06:55:02.590Z,39
2019-03-18T06:56:14.629Z,45
2019-03-18T06:57:26.821Z,39
2019-03-18T06:58:39.002Z,61
2019-03-18T06:59:51.196Z,90
2019-03-18T07:01:03.379Z,118
2019-03-18T07:02:15.581Z,163
2019-03-18T07:03:28.833Z,213
2019-03-18T07:04:40.065Z,281
2019-03-18T07:05:52.432Z,579
2019-03-18T07:07:08.505Z,635
2019-03-18T07:08:20.183Z,618
2019-03-18T07:09:30.929Z,618
2019-03-18T07:10:43.985Z,270
2019-03-18T07:11:53.127Z,281
2019-03-18T07:13:05.542Z,163
2019-03-18T07:14:17.667Z,135
2019-03-18T07:15:29.760Z,118
2019-03-18T07:16:42.080Z,112
2019-03-18T07:17:54.288Z,101
2019-03-18T07:19:06.403Z,95
2019-03-18T07:20:18.676Z,95
2019-03-18T07:21:30.785Z,95
2019-03-18T07:22:43.352Z,95
2019-03-18T07:23:55.085Z,95
2019-03-18T07:25:07.352Z,101
2019-03-18T07:26:19.581Z,101
2019-03-18T07:27:31.757Z,112
2019-03-18T07:28:43.954Z,112
2019-03-18T07:29:56.108Z,112
2019-03-18T07:31:09.897Z,112
2019-03-18T07:32:20.551Z,112
2019-03-18T07:33:32.655Z,118
2019-03-18T07:34:45.078Z,123
2019-03-18T07:35:57.136Z,135
2019-03-18T07:37:09.321Z,151
2019-03-18T07:38:21.558Z,174
2019-03-18T07:39:33.620Z,196
2019-03-18T07:40:45.826Z,219
2019-03-18T07:41:58.079Z,236
2019-03-18T07:43:10.459Z,258
2019-03-18T07:44:22.508Z,286
2019-03-18T07:45:34.790Z,275
2019-03-18T07:46:46.813Z,286
2019-03-18T07:47:58.995Z,286
2019-03-18T07:49:11.448Z,320
2019-03-18T07:50:23.466Z,399
2019-03-18T07:51:35.697Z,562
2019-03-18T07:52:47.796Z,703
2019-03-18T07:53:59.977Z,900
2019-03-18T07:55:12.284Z,776
2019-03-18T07:56:24.461Z,1327
2019-03-18T07:57:36.566Z,1288
2019-03-18T07:58:48.804Z,1192
2019-03-18T08:00:01.053Z,1091
2019-03-18T08:01:13.283Z,585
2019-03-18T08:02:25.441Z,624
2019-03-18T08:03:37.653Z,905
2019-03-18T08:04:49.739Z,1074
2019-03-18T08:06:01.964Z,804
2019-03-18T08:07:14.220Z,1175
2019-03-18T08:08:26.417Z,1372
2019-03-18T08:09:38.588Z,832
2019-03-18T08:10:50.714Z,1186
2019-03-18T08:12:03.082Z,1130
2019-03-18T08:13:15.136Z,1136
2019-03-18T08:14:27.406Z,748
2019-03-18T08:15:39.674Z,590
2019-03-18T08:16:51.776Z,596
2019-03-18T08:18:03.900Z,860
2019-03-18T08:19:16.128Z,1344
2019-03-18T08:20:28.374Z,978
2019-03-18T08:21:40.592Z,528
2019-03-18T08:22:52.665Z,798
2019-03-18T08:24:04.962Z,658
2019-03-18T08:25:17.158Z,1400
2019-03-18T08:26:29.261Z,1186
2019-03-18T08:27:41.556Z,511
2019-03-18T08:28:53.651Z,354
2019-03-18T08:30:05.917Z,292
2019-03-18T08:31:18.048Z,438
2019-03-18T08:32:30.420Z,630
2019-03-18T08:33:42.654Z,1265
2019-03-18T08:34:54.743Z,500
2019-03-18T08:36:06.866Z,1507
2019-03-18T08:37:19.116Z,1642
2019-03-18T08:38:31.357Z,1811
2019-03-18T08:39:43.417Z,669
2019-03-18T08:40:55.703Z,618
2019-03-18T08:42:07.822Z,1721
2019-03-18T08:43:20.142Z,1175
2019-03-18T08:44:32.348Z,1625
2019-03-18T08:45:44.504Z,596
2019-03-18T08:46:56.626Z,534
2019-03-18T08:48:08.782Z,1575
2019-03-18T08:49:21.087Z,855
2019-03-18T08:50:33.298Z,1636
2019-03-18T08:51:45.401Z,1423
2019-03-18T08:52:59.231Z,1428
2019-03-18T08:54:09.835Z,652
2019-03-18T08:55:22.313Z,1597
2019-03-18T08:56:34.268Z,1715
2019-03-18T08:57:46.468Z,1198
2019-03-18T08:58:58.687Z,759
2019-03-18T09:00:10.739Z,742
2019-03-18T09:01:22.927Z,376
2019-03-18T09:03:47.453Z,1524
2019-03-18T09:04:59.619Z,1260
2019-03-18T09:06:11.807Z,1338
2019-03-18T09:07:23.923Z,393
2019-03-18T09:08:36.269Z,331
2019-03-18T09:09:48.313Z,303
2019-03-18T09:11:00.662Z,286
2019-03-18T09:12:12.765Z,292
2019-03-18T09:13:24.967Z,270
2019-03-18T09:14:37.186Z,247
2019-03-18T09:15:49.373Z,253
2019-03-18T09:17:01.574Z,213
2019-03-18T09:18:13.744Z,241
2019-03-18T09:19:25.990Z,270
2019-03-18T09:20:38.156Z,275
2019-03-18T09:21:50.422Z,275
2019-03-18T09:23:02.723Z,292
2019-03-18T09:24:14.743Z,298
2019-03-18T09:25:26.834Z,331
2019-03-18T09:26:39.122Z,343
2019-03-18T09:27:51.319Z,337
2019-03-18T09:29:03.548Z,337
2019-03-18T09:30:15.835Z,416
2019-03-18T09:31:27.937Z,478
2019-03-18T09:32:40.748Z,618
2019-03-18T09:33:52.321Z,821
2019-03-18T09:35:04.398Z,1254
2019-03-18T09:36:16.823Z,1018
2019-03-18T09:37:28.876Z,1310
2019-03-18T09:38:41.064Z,843
2019-03-18T09:39:53.218Z,573
2019-03-18T09:41:05.429Z,877
2019-03-18T09:42:17.604Z,540
2019-03-18T09:43:29.957Z,1288
2019-03-18T09:44:42.146Z,1878
2019-03-18T09:45:54.161Z,1288
2019-03-18T09:47:06.393Z,950
2019-03-18T09:48:18.646Z,1738
2019-03-18T09:49:30.928Z,2053
2019-03-18T09:50:43.033Z,1462
2019-03-18T09:51:55.273Z,1485
2019-03-18T09:53:07.515Z,1389
2019-03-18T09:54:19.646Z,798
2019-03-18T09:55:31.725Z,725
2019-03-18T09:56:44.109Z,630
2019-03-18T09:57:57.141Z,658
2019-03-18T09:59:08.522Z,871
2019-03-18T10:00:20.673Z,804
2019-03-18T10:01:32.764Z,928
2019-03-18T10:02:44.988Z,1209
2019-03-18T10:03:57.355Z,866
2019-03-18T10:05:09.296Z,990
2019-03-18T10:06:21.495Z,2030
2019-03-18T10:07:33.801Z,2086
2019-03-18T10:08:45.971Z,2041
2019-03-18T10:09:58.246Z,2092
2019-03-18T10:11:10.350Z,2041
2019-03-18T10:12:22.543Z,2081
2019-03-18T10:13:34.749Z,2126
2019-03-18T10:14:46.876Z,2047
2019-03-18T10:15:59.148Z,2148
2019-03-18T10:17:11.251Z,2103
2019-03-18T10:18:23.448Z,1974
2019-03-18T10:19:35.823Z,2115
2019-03-18T10:20:48.034Z,2120
2019-03-18T10:22:00.095Z,450
2019-03-18T10:23:12.225Z,2193
2019-03-18T10:24:24.464Z,2216
2019-03-18T10:25:36.610Z,2250
2019-03-18T10:26:48.871Z,1260
2019-03-18T10:28:01.065Z,2317
2019-03-18T10:29:13.270Z,1732
2019-03-18T10:30:25.429Z,2351
2019-03-18T10:31:37.582Z,511
2019-03-18T10:32:49.890Z,2272
2019-03-18T10:34:02.053Z,545
2019-03-18T10:35:14.270Z,2340
2019-03-18T10:36:26.365Z,2317
2019-03-18T10:37:38.563Z,2227
2019-03-18T10:38:50.776Z,309
2019-03-18T10:40:03.014Z,2165
2019-03-18T10:41:15.228Z,2250
2019-03-18T10:42:27.364Z,1743
2019-03-18T10:43:39.682Z,337
2019-03-18T10:44:51.895Z,416
2019-03-18T10:46:04.054Z,399
2019-03-18T10:47:16.210Z,343
2019-03-18T10:48:28.317Z,298
2019-03-18T10:49:40.531Z,354
2019-03-18T10:50:52.707Z,298
2019-03-18T10:52:04.972Z,2317
2019-03-18T10:53:17.242Z,438
2019-03-18T10:54:29.355Z,2058
2019-03-18T10:55:41.493Z,478
2019-03-18T10:56:53.850Z,2311
2019-03-18T10:58:05.894Z,2311
2019-03-18T10:59:18.173Z,489
2019-03-18T11:00:30.269Z,495
2019-03-18T11:01:42.504Z,2300
2019-03-18T11:02:54.662Z,2407
2019-03-18T11:04:06.938Z,2188
2019-03-18T11:05:19.129Z,2345
2019-03-18T11:06:31.333Z,2593
2019-03-18T11:07:43.544Z,911
2019-03-18T11:08:55.799Z,635
2019-03-18T11:10:07.823Z,562
2019-03-18T11:11:20.180Z,495
2019-03-18T11:12:32.389Z,427
2019-03-18T11:13:44.577Z,495
2019-03-18T11:14:56.628Z,393
2019-03-18T11:16:08.808Z,433
2019-03-18T11:17:21.274Z,483
2019-03-18T11:18:33.212Z,928
2019-03-18T11:19:45.436Z,1035
2019-03-18T11:20:57.949Z,601
2019-03-18T11:22:09.830Z,838
2019-03-18T11:23:22.098Z,2131
2019-03-18T11:24:34.544Z,2283
2019-03-18T11:25:46.468Z,2221
2019-03-18T11:26:58.875Z,2193
2019-03-18T11:28:10.836Z,866
2019-03-18T11:29:23.022Z,725
2019-03-18T11:30:35.250Z,450
2019-03-18T11:31:47.707Z,371
2019-03-18T11:32:59.910Z,326
2019-03-18T11:34:11.795Z,275
2019-03-18T11:35:24.002Z,241
2019-03-18T11:36:36.239Z,196
2019-03-18T11:37:48.390Z,163
2019-03-18T11:39:00.564Z,140
2019-03-18T11:40:12.742Z,112
2019-03-18T11:41:25.268Z,95
2019-03-18T11:42:37.165Z,90
2019-03-18T11:43:49.351Z,84
2019-03-18T11:45:01.651Z,101
2019-03-18T11:46:13.722Z,123
2019-03-18T11:47:25.924Z,140
2019-03-18T11:48:38.263Z,140
2019-03-18T11:49:50.353Z,135
2019-03-18T11:51:02.496Z,135
2019-03-18T11:52:14.938Z,123
2019-03-18T11:53:26.982Z,129
2019-03-18T11:54:39.148Z,174
2019-03-18T11:55:51.591Z,213
2019-03-18T11:57:03.593Z,225
2019-03-18T11:58:15.678Z,258
2019-03-18T11:59:28.202Z,241
2019-03-18T12:00:40.514Z,275
2019-03-18T12:01:52.428Z,360
2019-03-18T12:03:04.502Z,382
2019-03-18T12:04:16.901Z,343
2019-03-18T12:05:28.962Z,281
2019-03-18T12:06:41.101Z,275
2019-03-18T12:07:53.198Z,281
2019-03-18T12:09:05.641Z,270
2019-03-18T12:10:17.929Z,331
2019-03-18T12:11:30.053Z,410
2019-03-18T12:12:42.128Z,393
2019-03-18T12:13:54.258Z,421
2019-03-18T12:15:06.411Z,427
2019-03-18T12:16:18.613Z,393
2019-03-18T12:17:31.074Z,388
2019-03-18T12:18:43.000Z,393
2019-03-18T12:19:55.467Z,405
2019-03-18T12:21:07.768Z,421
2019-03-18T12:22:19.858Z,427
2019-03-18T12:23:31.890Z,393
2019-03-18T12:24:44.138Z,354
2019-03-18T12:25:56.173Z,320
2019-03-18T12:27:08.620Z,320
2019-03-18T12:28:20.566Z,309
2019-03-18T12:29:32.806Z,331
2019-03-18T12:30:45.242Z,410
2019-03-18T12:31:57.413Z,421
2019-03-18T12:33:09.471Z,416
2019-03-18T12:34:21.543Z,337
2019-03-18T12:35:33.816Z,281
2019-03-18T12:36:46.202Z,236
2019-03-18T12:37:58.383Z,219
2019-03-18T12:39:14.764Z,202
2019-03-18T12:40:22.510Z,196
2019-03-18T12:41:34.756Z,191
2019-03-18T12:42:47.057Z,185
2019-03-18T12:43:59.105Z,180
2019-03-18T12:45:11.403Z,180
2019-03-18T12:46:23.592Z,174
2019-03-18T12:47:35.749Z,174
2019-03-18T12:48:48.651Z,180
2019-03-18T12:50:00.846Z,168
2019-03-18T12:51:12.276Z,168
2019-03-18T12:52:24.550Z,168
2019-03-18T12:53:36.931Z,163
2019-03-18T12:54:48.984Z,163
2019-03-18T12:56:01.271Z,163
2019-03-18T12:57:13.278Z,168
2019-03-18T12:58:25.670Z,168
2019-03-18T12:59:37.602Z,168
2019-03-18T13:00:50.058Z,168
2019-03-18T13:02:02.096Z,191
2019-03-18T13:03:14.444Z,202
2019-03-18T13:04:26.667Z,219
2019-03-18T13:05:38.692Z,208
2019-03-18T13:06:50.820Z,185
2019-03-18T13:08:03.404Z,180
2019-03-18T13:09:15.265Z,196
2019-03-18T13:10:27.422Z,196
2019-03-18T13:11:39.815Z,225
2019-03-18T13:12:51.750Z,230
2019-03-18T13:14:04.217Z,241
2019-03-18T13:15:16.131Z,230
2019-03-18T13:16:28.335Z,219
2019-03-18T13:17:40.517Z,236
2019-03-18T13:18:52.757Z,213
2019-03-18T13:20:04.911Z,185
2019-03-18T13:21:17.500Z,202
2019-03-18T13:22:29.545Z,236
2019-03-18T13:23:41.490Z,264
2019-03-18T13:24:54.058Z,298
2019-03-18T13:26:05.900Z,264
2019-03-18T13:27:18.331Z,258
2019-03-18T13:28:30.407Z,286
2019-03-18T13:29:42.497Z,275
2019-03-18T13:30:54.746Z,303
2019-03-18T13:32:06.833Z,292
2019-03-18T13:33:19.361Z,258
2019-03-18T13:34:31.263Z,275
2019-03-18T13:35:43.461Z,298
2019-03-18T13:36:55.650Z,292
2019-03-18T13:38:07.844Z,270
2019-03-18T13:39:20.056Z,230
2019-03-18T13:40:32.213Z,191
2019-03-18T13:41:44.363Z,174
2019-03-18T13:42:56.545Z,146
2019-03-18T13:44:08.861Z,101
2019-03-18T13:45:21.056Z,84
2019-03-18T13:46:33.198Z,78
2019-03-18T13:47:45.343Z,73
2019-03-18T13:48:57.619Z,67
2019-03-18T13:50:09.852Z,61
2019-03-18T13:51:21.996Z,56
2019-03-18T13:52:34.100Z,56
2019-03-18T13:53:46.367Z,50
2019-03-18T13:54:58.491Z,50
2019-03-18T13:56:10.784Z,50
2019-03-18T13:57:23.065Z,56
2019-03-18T13:58:35.106Z,61
2019-03-18T13:59:47.346Z,78
2019-03-18T14:00:59.467Z,90
2019-03-18T14:02:11.706Z,101
2019-03-18T14:03:23.866Z,106
2019-03-18T14:04:36.253Z,90
2019-03-18T14:05:48.408Z,61
2019-03-18T14:07:00.418Z,56
2019-03-18T14:08:12.612Z,45
2019-03-18T14:09:24.985Z,50
2019-03-18T14:10:37.078Z,50
2019-03-18T14:11:49.210Z,50
2019-03-18T14:13:01.521Z,67
2019-03-18T14:14:13.609Z,78
2019-03-18T14:15:25.827Z,95
2019-03-18T14:16:37.975Z,101
2019-03-18T14:17:50.290Z,106
2019-03-18T14:19:02.446Z,112
2019-03-18T14:20:14.597Z,123
2019-03-18T14:21:26.841Z,140
2019-03-18T14:22:38.947Z,163
2019-03-18T14:23:51.143Z,180
2019-03-18T14:25:03.332Z,191
2019-03-18T14:26:15.514Z,196
2019-03-18T14:27:27.777Z,208
2019-03-18T14:28:40.129Z,213
2019-03-18T14:29:52.239Z,213
2019-03-18T14:31:04.328Z,208
2019-03-18T14:32:16.574Z,196
2019-03-18T14:33:28.775Z,191
2019-03-18T14:34:40.880Z,185
2019-03-18T14:35:53.082Z,185
2019-03-18T14:37:06.804Z,185
2019-03-18T14:38:17.668Z,185
2019-03-18T14:39:29.706Z,196
2019-03-18T14:40:41.932Z,202
2019-03-18T14:41:57.159Z,196
2019-03-18T14:43:10.114Z,208
2019-03-18T14:44:18.722Z,208
2019-03-18T14:45:30.764Z,213
2019-03-18T14:46:45.181Z,208
2019-03-18T14:47:55.260Z,208
2019-03-18T14:49:07.326Z,213
2019-03-18T14:50:19.439Z,213
2019-03-18T14:51:31.765Z,213
2019-03-18T14:52:43.833Z,208
2019-03-18T14:53:56.073Z,196
2019-03-18T14:55:08.269Z,185
2019-03-18T14:56:20.475Z,163
2019-03-18T14:57:32.652Z,146
2019-03-18T14:58:44.749Z,135
2019-03-18T14:59:56.967Z,129
2019-03-18T15:01:09.145Z,123
2019-03-18T15:02:21.320Z,118
2019-03-18T15:03:33.588Z,118
2019-03-18T15:04:45.866Z,118
2019-03-18T15:05:58.063Z,112
2019-03-18T15:07:10.120Z,112
2019-03-18T15:08:22.321Z,112
2019-03-18T15:09:34.575Z,112
2019-03-18T15:10:46.802Z,112
2019-03-18T15:11:58.948Z,106
2019-03-18T15:13:43.346Z,106
2019-03-18T15:15:35.452Z,106
2019-03-18T15:16:47.687Z,106
2019-03-18T15:18:00.020Z,106
2019-03-18T15:19:12.230Z,106
2019-03-18T15:20:24.333Z,112
2019-03-18T15:21:36.542Z,112
2019-03-18T15:22:48.627Z,106
2019-03-18T15:24:00.813Z,106
2019-03-18T15:25:13.012Z,101
2019-03-18T15:26:25.253Z,101
2019-03-18T15:27:37.686Z,101
2019-03-18T15:28:49.640Z,101
2019-03-18T15:30:01.858Z,101
2019-03-18T15:31:14.427Z,106
2019-03-18T15:32:26.253Z,101
2019-03-18T15:33:38.744Z,95
2019-03-18T15:34:50.812Z,90
2019-03-18T15:36:02.869Z,90
2019-03-18T15:37:15.005Z,90
2019-03-18T15:38:27.205Z,95
2019-03-18T15:39:39.430Z,95
2019-03-18T15:40:51.607Z,90
2019-03-18T15:42:03.977Z,90
2019-03-18T15:43:15.984Z,84
2019-03-18T15:44:28.462Z,78
2019-03-18T15:45:40.462Z,84
2019-03-18T15:46:52.552Z,90
2019-03-18T15:48:04.752Z,95
2019-03-18T15:49:17.152Z,101
2019-03-18T15:50:29.353Z,112
2019-03-18T15:51:41.569Z,123
2019-03-18T15:52:53.521Z,140
2019-03-18T15:54:05.701Z,129
2019-03-18T15:55:17.916Z,123
2019-03-18T15:56:30.089Z,112
2019-03-18T15:57:42.440Z,106
2019-03-18T15:58:54.773Z,101
2019-03-18T16:00:06.688Z,90
2019-03-18T16:01:19.190Z,95
2019-03-18T16:02:31.293Z,95
2019-03-18T16:03:43.263Z,95
2019-03-18T16:04:55.449Z,95
2019-03-18T16:06:07.881Z,90
2019-03-18T16:07:20.173Z,78
2019-03-18T16:08:32.033Z,78
2019-03-18T16:09:44.316Z,73
2019-03-18T16:10:58.797Z,67
2019-03-18T16:12:08.661Z,56
2019-03-18T16:13:20.852Z,50
2019-03-18T16:14:32.947Z,50
2019-03-18T16:15:45.153Z,56
2019-03-18T16:16:57.396Z,61
2019-03-18T16:18:09.661Z,73
2019-03-18T16:19:22.030Z,78
2019-03-18T16:20:34.183Z,90
2019-03-18T16:21:46.321Z,90
2019-03-18T16:22:58.361Z,84
2019-03-18T16:24:15.455Z,84
2019-03-18T16:25:22.747Z,84
2019-03-18T16:26:35.182Z,84
2019-03-18T16:27:47.722Z,84
2019-03-18T16:28:59.337Z,84
2019-03-18T16:30:11.628Z,78
2019-03-18T16:31:23.834Z,73
2019-03-18T16:32:35.907Z,67
2019-03-18T16:33:48.432Z,73
2019-03-18T16:35:00.305Z,73
2019-03-18T16:36:17.017Z,78
2019-03-18T16:37:29.366Z,73
2019-03-18T16:38:36.914Z,73
2019-03-18T16:39:49.245Z,67
2019-03-18T16:41:01.410Z,67
2019-03-18T16:42:13.434Z,67
2019-03-18T16:43:25.871Z,61
2019-03-18T16:44:37.949Z,61
2019-03-18T16:45:50.157Z,61
2019-03-18T16:47:02.179Z,56
2019-03-18T16:48:14.373Z,56
2019-03-18T16:49:26.613Z,56
2019-03-18T16:50:38.882Z,56
2019-03-18T16:51:51.019Z,56
2019-03-18T16:53:03.430Z,50
2019-03-18T16:54:15.728Z,50
2019-03-18T16:55:27.588Z,50
2019-03-18T16:56:39.856Z,45
2019-03-18T16:57:52.147Z,45
2019-03-18T16:59:04.156Z,45
2019-03-18T17:00:16.441Z,45
2019-03-18T17:01:28.517Z,45
2019-03-18T17:02:40.844Z,39
2019-03-18T17:03:52.981Z,39
2019-03-18T17:05:05.106Z,39
2019-03-18T17:06:17.367Z,33
2019-03-18T17:07:29.527Z,33
2019-03-18T17:08:41.807Z,33
2019-03-18T17:09:54.003Z,33
2019-03-18T17:11:06.121Z,33
2019-03-18T17:12:18.344Z,28
2019-03-18T17:13:30.677Z,28